• Join FlightAware (Why Join?)
  • Login
  • US Flag 
 
03:43AM EST


 

Airport Tracker/Info


-or-


 

Live Flight TrackerFlight Track Log ✈ CTL18 ✈ 24-Jul-2013 ✈ KYIP - KBKL

Flight Track Log - Related Links

Times and Time Zones

All times are in EDT time to prevent confusion due to time zone crossing. See the CTL18 flight status page for this flight to view local times or setup timezone preferences in your user account.

Time Position Orientation Groundspeed Altitude Reporting Facility
EDT Latitude Longitude Course Direction KTS MPH feet Rate Location/Type
08:49PM 42.2622 -83.5181 North 121 139 1,800  Level Cleveland Center
08:50PM 42.2736 -83.5606 290° West 119 137 3,100 1,080 Climbing Cleveland Center
08:51PM 42.2533 -83.5428 147° Southeast 126 145 4,000 960 Climbing Cleveland Center
08:52PM 42.2378 -83.4972 115° Southeast 120 138 5,100 960 Climbing Cleveland Center
08:53PM 42.2222 -83.4544 116° Southeast 127 146 6,000 480 Climbing Cleveland Center
08:54PM 42.2047 -83.4003 114° Southeast 172 198 6,100 -60 Climbing Cleveland Center
08:55PM 42.1789 -83.3458 123° Southeast 179 206 5,900 -360 Descending Cleveland Center
08:56PM 42.1511 -83.2886 123° Southeast 192 221 5,400 -480 Descending Cleveland Center
08:57PM 42.1214 -83.2231 121° Southeast 193 222 5,000 -240 Descending Cleveland Center
08:58PM 42.0764 -83.1878 150° Southeast 181 208 5,000  Level Cleveland Center
08:59PM 42.0567 -83.1281 114° Southeast 181 208 5,100  Climbing Cleveland Center
09:00PM 42.0331 -83.0656 117° Southeast 181 208 5,100 -60 Level Cleveland Center
09:01PM 42.0094 -83.0061 118° Southeast 176 203 5,000  Descending Cleveland Center
09:02PM 41.9878 -82.9467 116° Southeast 176 203 5,100  Climbing Cleveland Center
09:03PM 41.9639 -82.8869 118° Southeast 175 201 5,100  Level Cleveland Center
09:04PM 41.9419 -82.8333 119° Southeast 175 201 5,100 -60 Level Cleveland Center
09:06PM 41.9103 -82.7483 117° Southeast 175 201 5,000  Descending Cleveland Center
09:07PM 41.8906 -82.6864 113° Southeast 178 205 5,100  Climbing Cleveland Center
09:08PM 41.8767 -82.6442 114° Southeast 175 201 5,100  Level Cleveland Center
09:09PM 41.8528 -82.5847 118° Southeast 178 205 5,100  Level Cleveland Center
09:10PM 41.8250 -82.5114 117° Southeast 174 200 5,100 -60 Level Cleveland Center
09:11PM 41.8092 -82.4581 112° Southeast 171 197 5,000  Descending Cleveland Center
09:12PM 41.7831 -82.3958 119° Southeast 170 196 5,100 -300 Climbing Cleveland Center
09:13PM 41.7650 -82.3397 113° Southeast 184 212 4,400 -600 Descending Cleveland Center
09:14PM 41.7389 -82.2750 118° Southeast 190 219 4,000 -240 Descending Cleveland Center
09:15PM 41.7169 -82.2217 119° Southeast 181 208 4,000  Level Cleveland Center
09:16PM 41.6906 -82.1542 118° Southeast 172 198 4,000  Level Cleveland Center
09:17PM 41.6767 -82.1178 117° Southeast 173 199 4,000  Level Cleveland Center
09:18PM 41.6544 -82.0617 118° Southeast 172 198 4,000  Level Cleveland Center
09:19PM 41.6322 -82.0028 117° Southeast 171 197 4,000 -240 Level Cleveland Center
09:20PM 41.6100 -81.9467 118° Southeast 174 200 3,600 -660 Descending Cleveland Center
09:21PM 41.5858 -81.8822 117° Southeast 195 224 2,700 -840 Descending Cleveland Center
09:22PM 41.5614 -81.8208 118° Southeast 180 207 2,000 -480 Descending Cleveland Center
09:23PM 41.5453 -81.7706 113° Southeast 147 169 1,800 -180 Descending Cleveland Center
09:24PM 41.5247 -81.7425 134° Southeast 106 122 1,700 -420 Descending Cleveland Center
09:25PM 41.5061 -81.7117 129° Southeast 89 102 1,000 -660 Descending Cleveland Center
09:27PM 41.5175 -81.6833 115° Southeast  Level Estimated